Frankville, Alabama
Current Conditions -  °F | °C
As of 11:55 AM on Friday 24 Oct 2014 (Local Time) from KDYA Reporting Station
Clear Clear  
Wind Chill: 70°   Ceiling: Unl
Heat Index: 70°   Visibility: 10mi
Dew Point: 40°   Wind: 6mph
Humidity: 34%   Direction: 320°NW
Pressure: 30.09"   Gusts: NA
Location:  31.65°N, 88.15°W
Report Text: KDYA 241655Z AUTO 32005KT 10SM CLR 21/05 A3009 RMK AO2 T02120046
Loading
Personal Weather Stations






























Interactive Weather Map
Tropical Storm Tracking
New forecast layout! Learn more

10-Day Weather Forecast

Advertisements
Track Severe Weather on mobile